createdAt,value
2022-11-22T00:01:34.820Z,79.10
2022-11-22T00:04:03.675Z,80.35
2022-11-22T00:06:34.040Z,79.07
2022-11-22T00:09:03.022Z,81.55
2022-11-22T00:11:31.356Z,84.72
2022-11-22T00:14:03.349Z,87.05
2022-11-22T00:19:00.693Z,81.88
2022-11-22T00:21:29.155Z,82.55
2022-11-22T00:23:58.760Z,81.38
2022-11-22T00:26:29.153Z,82.32
2022-11-22T00:28:59.092Z,77.30
2022-11-22T00:31:28.666Z,84.35
2022-11-22T00:33:57.695Z,85.20
2022-11-22T00:36:26.239Z,92.47
2022-11-22T00:38:54.595Z,93.90
2022-11-22T00:41:22.901Z,91.63
2022-11-22T00:43:51.126Z,86.28
2022-11-22T00:46:19.494Z,82.57
2022-11-22T00:48:47.771Z,78.60
2022-11-22T00:51:16.058Z,70.40
2022-11-22T00:53:44.372Z,75.85
2022-11-22T00:56:12.604Z,72.03
2022-11-22T00:58:40.789Z,68.93
2022-11-22T01:01:09.151Z,66.80
2022-11-22T01:03:37.423Z,64.90
2022-11-22T01:06:05.750Z,63.22
2022-11-22T01:08:34.031Z,62.55
2022-11-22T01:11:02.905Z,64.68
2022-11-22T01:13:31.457Z,65.35
2022-11-22T01:16:05.579Z,62.00
2022-11-22T01:18:34.262Z,60.38
2022-11-22T01:21:02.804Z,64.28
2022-11-22T01:23:31.091Z,63.88
2022-11-22T01:25:59.518Z,66.63
2022-11-22T01:28:28.284Z,65.03
2022-11-22T01:30:56.613Z,71.57
2022-11-22T01:33:24.912Z,71.10
2022-11-22T01:35:52.971Z,73.53
2022-11-22T01:38:21.171Z,76.90
2022-11-22T01:40:49.472Z,73.30
2022-11-22T01:43:20.827Z,69.40
2022-11-22T01:45:54.538Z,72.10
2022-11-22T01:48:38.572Z,70.15
2022-11-22T01:51:25.198Z,69.75
2022-11-22T01:53:56.845Z,71.10
2022-11-22T01:56:25.664Z,72.13
2022-11-22T01:58:59.083Z,71.18
2022-11-22T02:01:29.053Z,84.10
2022-11-22T02:04:01.139Z,88.88
2022-11-22T02:09:11.208Z,82.70
2022-11-22T02:11:47.708Z,77.28
2022-11-22T02:14:21.526Z,71.63
2022-11-22T02:16:49.842Z,61.90
2022-11-22T02:19:32.395Z,59.83
2022-11-22T02:22:11.160Z,58.88
2022-11-22T02:24:52.615Z,56.80
2022-11-22T02:27:20.901Z,61.50
2022-11-22T02:29:49.080Z,58.22
2022-11-22T02:32:17.411Z,54.30
2022-11-22T02:34:49.681Z,56.63
2022-11-22T02:37:27.567Z,54.90
2022-11-22T02:40:03.420Z,55.00
2022-11-22T02:42:33.016Z,53.13
2022-11-22T02:45:01.361Z,52.35
2022-11-22T02:47:29.555Z,52.33
2022-11-22T02:49:57.717Z,49.97
2022-11-22T02:52:25.987Z,51.35
2022-11-22T02:54:54.199Z,50.55
2022-11-22T02:57:22.514Z,49.72
2022-11-22T02:59:50.629Z,49.97
2022-11-22T03:02:18.863Z,48.75
2022-11-22T03:04:47.013Z,46.53
2022-11-22T03:07:15.293Z,50.15
2022-11-22T03:09:43.495Z,48.33
2022-11-22T03:12:11.755Z,50.15
2022-11-22T03:14:39.916Z,51.47
2022-11-22T03:17:08.049Z,53.13
2022-11-22T03:19:36.281Z,52.85
2022-11-22T03:22:04.399Z,51.30
2022-11-22T03:24:32.539Z,50.67
2022-11-22T03:27:00.946Z,49.90
2022-11-22T03:29:29.581Z,46.97
2022-11-22T03:31:58.140Z,50.92
2022-11-22T03:34:26.386Z,49.58
2022-11-22T03:36:54.510Z,48.03
2022-11-22T03:39:22.861Z,48.20
2022-11-22T03:41:50.968Z,48.92
2022-11-22T03:44:19.178Z,49.35
2022-11-22T03:46:47.446Z,48.45
2022-11-22T03:49:15.898Z,50.88
2022-11-22T03:51:44.266Z,51.92
2022-11-22T03:54:12.495Z,58.08
2022-11-22T03:56:40.749Z,56.30
2022-11-22T03:59:08.837Z,55.67
2022-11-22T04:01:37.072Z,57.13
2022-11-22T04:04:05.499Z,56.40
2022-11-22T04:06:33.747Z,57.85
2022-11-22T04:09:01.891Z,56.10
2022-11-22T04:11:30.145Z,56.85
2022-11-22T04:13:58.424Z,55.40
2022-11-22T04:16:26.664Z,57.20
2022-11-22T04:18:54.734Z,57.65
2022-11-22T04:21:23.109Z,61.67
2022-11-22T04:23:51.438Z,59.47
2022-11-22T04:26:19.659Z,58.80
2022-11-22T04:29:08.703Z,57.83
2022-11-22T04:31:36.246Z,55.63
2022-11-22T04:34:04.469Z,57.13
2022-11-22T04:36:32.573Z,55.33
2022-11-22T04:39:00.722Z,57.22
2022-11-22T04:41:28.994Z,57.30
2022-11-22T04:43:57.074Z,53.60
2022-11-22T04:46:25.295Z,55.90
2022-11-22T04:48:53.529Z,53.25
2022-11-22T04:51:40.314Z,56.25
2022-11-22T04:54:08.548Z,54.17
2022-11-22T04:56:36.799Z,53.15
2022-11-22T04:59:04.915Z,50.63
2022-11-22T05:01:33.435Z,48.97
2022-11-22T05:04:01.674Z,49.80
2022-11-22T05:06:29.831Z,49.22
2022-11-22T05:08:58.004Z,48.85
2022-11-22T05:11:26.209Z,46.45
2022-11-22T05:13:54.396Z,45.30
2022-11-22T05:16:22.528Z,46.45
2022-11-22T05:18:50.873Z,45.78
2022-11-22T05:21:19.175Z,43.25
2022-11-22T05:23:47.193Z,45.05
2022-11-22T05:26:15.364Z,43.63
2022-11-22T05:28:43.647Z,44.97
2022-11-22T05:31:14.553Z,42.08
2022-11-22T05:33:44.597Z,43.05
2022-11-22T05:36:13.230Z,44.83
2022-11-22T05:38:41.330Z,46.38
2022-11-22T05:41:12.734Z,47.50
2022-11-22T05:43:41.512Z,46.25
2022-11-22T05:46:22.497Z,43.38
2022-11-22T05:51:22.980Z,45.78
2022-11-22T05:53:51.202Z,41.90
2022-11-22T05:56:24.327Z,44.30
2022-11-22T05:58:53.817Z,41.45
2022-11-22T06:01:23.923Z,43.00
2022-11-22T06:03:52.788Z,43.72
2022-11-22T06:06:21.183Z,41.85
2022-11-22T06:08:49.365Z,42.55
2022-11-22T06:11:24.099Z,42.22
2022-11-22T06:13:57.771Z,41.40
2022-11-22T06:16:27.412Z,40.58
2022-11-22T06:18:55.848Z,39.38
2022-11-22T06:21:25.894Z,40.78
2022-11-22T06:23:55.387Z,40.72
2022-11-22T06:26:24.772Z,41.75
2022-11-22T06:28:54.292Z,38.90
2022-11-22T06:31:25.181Z,39.47
2022-11-22T06:33:58.922Z,39.42
2022-11-22T06:36:32.697Z,38.33
2022-11-22T06:39:01.571Z,38.03
2022-11-22T06:41:34.013Z,37.35
2022-11-22T06:44:08.492Z,38.55
2022-11-22T06:46:37.539Z,40.28
2022-11-22T06:49:06.305Z,38.72
2022-11-22T06:51:35.433Z,39.63
2022-11-22T06:54:03.696Z,40.40
2022-11-22T06:56:42.074Z,41.10
2022-11-22T06:59:10.540Z,41.35
2022-11-22T07:01:39.125Z,39.22
2022-11-22T07:04:07.477Z,38.35
2022-11-22T07:06:38.625Z,40.00
2022-11-22T07:09:09.752Z,39.97
2022-11-22T07:11:38.725Z,39.85
2022-11-22T07:14:09.040Z,38.08
2022-11-22T07:16:38.961Z,36.72
2022-11-22T07:19:07.573Z,37.40
2022-11-22T07:21:36.531Z,35.72
2022-11-22T07:24:06.226Z,34.38
2022-11-22T07:26:34.395Z,33.40
2022-11-22T07:29:02.599Z,34.20
2022-11-22T07:31:31.059Z,34.30
2022-11-22T07:33:59.341Z,33.63
2022-11-22T07:36:27.729Z,33.00
2022-11-22T07:38:55.843Z,33.13
2022-11-22T07:41:24.082Z,32.72
2022-11-22T07:43:52.345Z,30.40
2022-11-22T07:46:28.567Z,30.15
2022-11-22T07:48:57.618Z,27.90
2022-11-22T07:51:26.055Z,27.27
2022-11-22T07:53:55.788Z,26.80
2022-11-22T07:56:24.633Z,28.15
2022-11-22T07:58:52.842Z,27.63
2022-11-22T08:01:21.364Z,28.65
2022-11-22T08:03:49.436Z,25.58
2022-11-22T08:06:17.814Z,28.17
2022-11-22T08:08:45.845Z,26.92
2022-11-22T08:11:14.256Z,26.52
2022-11-22T08:13:42.405Z,24.67
2022-11-22T08:16:13.145Z,24.50
2022-11-22T08:18:42.918Z,24.75
2022-11-22T08:21:13.376Z,22.65
2022-11-22T08:23:42.996Z,24.10
2022-11-22T08:26:13.526Z,23.50
2022-11-22T08:28:45.056Z,24.60
2022-11-22T08:31:15.847Z,22.58
2022-11-22T08:33:43.946Z,20.83
2022-11-22T08:36:12.290Z,21.98
2022-11-22T08:38:40.488Z,21.42
2022-11-22T08:41:08.606Z,20.33
2022-11-22T08:43:37.115Z,21.17
2022-11-22T08:46:06.018Z,21.08
2022-11-22T08:48:36.171Z,21.67
2022-11-22T08:51:07.421Z,22.33
2022-11-22T08:53:40.916Z,21.60
2022-11-22T08:56:12.583Z,21.05
2022-11-22T08:58:41.295Z,20.95
2022-11-22T09:01:15.281Z,23.35
2022-11-22T09:03:44.524Z,20.08
2022-11-22T09:09:22.631Z,14.93
2022-11-22T09:11:51.421Z,14.65
2022-11-22T09:14:19.811Z,14.25
2022-11-22T09:16:47.922Z,15.90
2022-11-22T09:19:16.361Z,16.13
2022-11-22T09:21:44.652Z,17.10
2022-11-22T09:24:12.789Z,15.52
2022-11-22T09:26:41.087Z,15.07
2022-11-22T09:29:09.116Z,14.52
2022-11-22T09:31:37.256Z,13.85
2022-11-22T09:34:05.512Z,14.77
2022-11-22T09:36:33.598Z,14.77
2022-11-22T09:39:01.879Z,13.40
2022-11-22T09:42:05.584Z,14.02
2022-11-22T09:44:58.094Z,14.30
2022-11-22T09:47:44.292Z,13.07
2022-11-22T09:50:22.119Z,14.98
2022-11-22T09:53:30.617Z,14.48
2022-11-22T09:56:03.529Z,14.05
2022-11-22T09:58:40.959Z,14.15
2022-11-22T10:01:17.406Z,14.23
2022-11-22T10:04:29.572Z,13.15
2022-11-22T10:07:02.379Z,15.60
2022-11-22T10:09:54.448Z,13.27
2022-11-22T10:12:44.471Z,13.25
2022-11-22T10:15:40.102Z,12.82
2022-11-22T10:18:26.442Z,11.52
2022-11-22T10:20:55.728Z,13.55
2022-11-22T10:23:25.854Z,12.73
2022-11-22T10:26:06.669Z,10.25
2022-11-22T10:29:09.182Z,8.32
2022-11-22T10:32:15.726Z,8.93
2022-11-22T10:35:08.424Z,7.28
2022-11-22T10:37:50.932Z,8.52
2022-11-22T10:40:49.330Z,8.27
2022-11-22T10:44:18.616Z,8.90
2022-11-22T10:47:11.366Z,9.38
2022-11-22T10:50:04.106Z,10.80
2022-11-22T10:52:42.506Z,9.93
2022-11-22T10:55:22.699Z,9.27
2022-11-22T10:58:20.260Z,8.90
2022-11-22T11:00:56.549Z,10.95
2022-11-22T11:03:35.821Z,11.07
2022-11-22T11:06:22.768Z,8.93
2022-11-22T11:12:26.600Z,9.02
2022-11-22T11:15:04.593Z,10.88
2022-11-22T11:17:38.444Z,8.55
2022-11-22T11:20:21.636Z,8.95
2022-11-22T11:23:13.706Z,9.15
2022-11-22T11:25:40.508Z,9.25
2022-11-22T11:28:13.794Z,9.73
2022-11-22T11:31:07.323Z,8.88
2022-11-22T11:33:40.552Z,9.52
2022-11-22T11:36:16.270Z,9.38
2022-11-22T11:38:44.640Z,9.07
2022-11-22T11:41:26.461Z,9.38
2022-11-22T11:44:02.738Z,10.00
2022-11-22T11:46:51.050Z,9.93
2022-11-22T11:49:24.790Z,8.95
2022-11-22T11:52:00.215Z,8.98
2022-11-22T11:54:38.707Z,10.13
2022-11-22T11:57:22.171Z,9.70
2022-11-22T11:59:52.034Z,10.07
2022-11-22T12:02:43.335Z,11.07
2022-11-22T12:05:14.360Z,10.82
2022-11-22T12:07:45.237Z,24.80
2022-11-22T12:10:42.074Z,16.88
2022-11-22T12:13:23.850Z,21.73
2022-11-22T12:15:59.483Z,18.85
2022-11-22T12:18:50.449Z,18.70
2022-11-22T12:21:24.700Z,19.60
2022-11-22T12:24:13.468Z,21.10
2022-11-22T12:26:47.861Z,17.30
2022-11-22T12:29:16.659Z,19.40
2022-11-22T12:32:00.821Z,18.00
2022-11-22T12:34:47.831Z,13.57
2022-11-22T12:37:30.271Z,14.38
2022-11-22T12:40:06.028Z,10.57
2022-11-22T12:42:58.628Z,10.88
2022-11-22T12:45:43.110Z,13.85
2022-11-22T12:49:09.695Z,13.05
2022-11-22T12:52:05.547Z,11.52
2022-11-22T12:54:56.609Z,12.52
2022-11-22T12:57:43.387Z,12.45
2022-11-22T13:00:17.809Z,16.35
2022-11-22T13:03:13.490Z,25.45
2022-11-22T13:05:47.884Z,13.02
2022-11-22T13:08:27.343Z,15.93
2022-11-22T13:11:12.405Z,11.30
2022-11-22T13:14:15.122Z,9.65
2022-11-22T13:16:46.290Z,9.50
2022-11-22T13:19:17.259Z,9.88
2022-11-22T13:22:22.283Z,8.60
2022-11-22T13:24:56.445Z,10.82
2022-11-22T13:27:39.845Z,11.95
2022-11-22T13:30:19.584Z,8.68
2022-11-22T13:32:54.775Z,9.18
2022-11-22T13:35:33.154Z,8.35
2022-11-22T13:38:07.999Z,9.85
2022-11-22T13:40:49.277Z,10.23
2022-11-22T13:43:22.292Z,8.43
2022-11-22T13:45:59.408Z,7.35
2022-11-22T13:48:42.906Z,10.38
2022-11-22T13:51:16.301Z,8.32
2022-11-22T13:53:47.298Z,7.95
2022-11-22T13:56:21.416Z,8.47
2022-11-22T13:58:51.449Z,10.88
2022-11-22T14:01:35.247Z,13.85
2022-11-22T14:04:25.045Z,14.30
2022-11-22T14:07:32.104Z,13.43
2022-11-22T14:10:02.756Z,11.43
2022-11-22T14:13:06.007Z,11.32
2022-11-22T14:16:16.901Z,11.50
2022-11-22T14:19:12.652Z,12.65
2022-11-22T14:21:43.882Z,11.18
2022-11-22T14:24:48.916Z,15.23
2022-11-22T14:27:23.377Z,15.15
2022-11-22T14:30:07.598Z,12.35
2022-11-22T14:33:00.602Z,13.88
2022-11-22T14:35:38.094Z,18.25
2022-11-22T14:38:29.230Z,12.13
2022-11-22T14:41:29.611Z,12.43
2022-11-22T14:44:20.407Z,11.95
2022-11-22T14:46:53.857Z,10.40
2022-11-22T14:49:35.623Z,10.82
2022-11-22T14:52:05.988Z,10.07
2022-11-22T14:54:47.292Z,7.53
2022-11-22T14:57:22.941Z,9.03
2022-11-22T15:00:13.509Z,7.72
2022-11-22T15:03:00.364Z,7.25
2022-11-22T15:09:12.370Z,6.85
2022-11-22T15:09:13.829Z,7.15
2022-11-22T15:11:51.010Z,9.00
2022-11-22T15:14:55.967Z,7.03
2022-11-22T15:58:13.798Z,6.78
2022-11-22T16:00:45.306Z,7.57
2022-11-22T16:03:25.582Z,7.43
2022-11-22T16:06:09.768Z,6.20
2022-11-22T16:08:40.283Z,7.13
2022-11-22T16:11:19.800Z,6.43
2022-11-22T16:13:48.311Z,6.43
2022-11-22T16:16:16.526Z,7.15
2022-11-22T16:18:45.769Z,7.28
2022-11-22T16:21:16.934Z,7.10
2022-11-22T16:23:46.250Z,6.75
2022-11-22T16:26:30.134Z,6.93
2022-11-22T16:29:20.147Z,5.72
2022-11-22T16:31:49.078Z,7.63
2022-11-22T16:34:17.508Z,6.13
2022-11-22T16:36:45.733Z,6.13
2022-11-22T16:39:13.957Z,7.00
2022-11-22T16:41:42.274Z,50.42
2022-11-22T16:44:17.193Z,157.32
2022-11-22T16:46:45.533Z,324.27
2022-11-22T16:49:22.774Z,133.20
2022-11-22T16:51:52.273Z,51.55
2022-11-22T16:54:21.358Z,17.83
2022-11-22T16:56:49.713Z,22.48
2022-11-22T16:59:17.904Z,20.23
2022-11-22T17:01:46.088Z,133.65
2022-11-22T17:04:25.362Z,47.78
2022-11-22T17:06:53.754Z,47.13
2022-11-22T17:09:22.065Z,30.05
2022-11-22T17:11:50.727Z,13.85
2022-11-22T17:14:19.400Z,8.57
2022-11-22T17:16:47.755Z,9.13
2022-11-22T17:19:45.744Z,7.60
2022-11-22T17:22:04.621Z,7.10
2022-11-22T17:24:35.232Z,7.07
2022-11-22T17:27:03.516Z,6.40
2022-11-22T17:32:20.253Z,7.40
2022-11-22T17:34:48.457Z,11.57
2022-11-22T17:37:16.618Z,27.23
2022-11-22T17:39:44.898Z,8.20
2022-11-22T17:42:13.135Z,6.82
2022-11-22T17:44:41.455Z,6.03
2022-11-22T17:47:10.019Z,7.35
2022-11-22T17:49:38.347Z,8.00
2022-11-22T17:52:06.717Z,6.30
2022-11-22T17:54:35.091Z,8.82
2022-11-22T17:57:03.344Z,9.73
2022-11-22T17:59:31.859Z,10.90
2022-11-22T18:02:00.497Z,10.45
2022-11-22T18:04:29.258Z,7.70
2022-11-22T18:06:58.786Z,9.02
2022-11-22T18:09:27.073Z,8.52
2022-11-22T18:11:55.330Z,9.30
2022-11-22T18:14:23.626Z,9.63
2022-11-22T18:16:51.804Z,8.07
2022-11-22T18:19:20.050Z,11.45
2022-11-22T18:21:48.368Z,10.30
2022-11-22T18:24:16.716Z,12.00
2022-11-22T18:26:45.034Z,11.05
2022-11-22T18:32:03.258Z,12.95
2022-11-22T18:34:31.894Z,17.40
2022-11-22T18:37:03.638Z,18.02
2022-11-22T18:39:35.527Z,9.65
2022-11-22T18:44:33.406Z,9.85
2022-11-22T18:47:01.878Z,11.00
2022-11-22T18:49:30.740Z,9.93
2022-11-22T18:51:59.393Z,12.07
2022-11-22T18:54:27.509Z,10.55
2022-11-22T18:56:55.651Z,12.63
2022-11-22T18:59:24.077Z,12.25
2022-11-22T19:01:52.320Z,12.60
2022-11-22T19:04:20.489Z,12.05
2022-11-22T19:06:48.702Z,11.10
2022-11-22T19:09:16.915Z,10.32
2022-11-22T19:11:45.137Z,8.93
2022-11-22T19:14:13.417Z,10.90
2022-11-22T19:16:41.497Z,11.30
2022-11-22T19:19:11.942Z,9.95
2022-11-22T19:21:40.608Z,12.90
2022-11-22T19:24:08.867Z,14.00
2022-11-22T19:26:37.387Z,10.68
2022-11-22T19:29:05.651Z,15.90
2022-11-22T19:31:33.986Z,12.43
2022-11-22T19:34:02.567Z,9.77
2022-11-22T19:36:33.809Z,9.95
2022-11-22T19:39:04.750Z,8.57
2022-11-22T19:41:33.815Z,7.50
2022-11-22T19:44:02.529Z,8.82
2022-11-22T19:46:31.342Z,9.48
2022-11-22T19:49:00.566Z,9.45
2022-11-22T19:51:30.736Z,8.75
2022-11-22T19:54:03.263Z,8.23
2022-11-22T19:56:36.989Z,9.48
2022-11-22T19:59:07.622Z,11.13
2022-11-22T20:01:36.481Z,10.02
2022-11-22T20:04:07.441Z,8.48
2022-11-22T20:06:36.919Z,9.23
2022-11-22T20:09:13.113Z,8.43
2022-11-22T20:11:42.741Z,8.90
2022-11-22T20:14:11.085Z,8.52
2022-11-22T20:16:40.160Z,7.78
2022-11-22T20:19:08.693Z,8.05
2022-11-22T20:21:39.280Z,7.05
2022-11-22T20:24:08.917Z,7.93
2022-11-22T20:26:37.132Z,7.88
2022-11-22T20:29:08.886Z,19.33
2022-11-22T20:31:37.645Z,24.15
2022-11-22T20:34:06.058Z,13.50
2022-11-22T20:36:35.709Z,11.38
2022-11-22T20:39:09.757Z,11.60
2022-11-22T20:41:41.751Z,11.15
2022-11-22T20:44:13.543Z,12.93
2022-11-22T20:46:42.211Z,11.73
2022-11-22T20:49:10.711Z,11.07
2022-11-22T20:51:39.317Z,10.63
2022-11-22T20:54:09.092Z,9.10
2022-11-22T20:56:38.255Z,15.02
2022-11-22T20:59:06.585Z,20.42
2022-11-22T21:01:34.930Z,15.68
2022-11-22T21:04:03.300Z,12.32
2022-11-22T21:06:31.644Z,17.48
2022-11-22T21:08:59.803Z,20.95
2022-11-22T21:11:30.185Z,22.77
2022-11-22T21:13:58.564Z,18.60
2022-11-22T21:16:29.283Z,20.67
2022-11-22T21:18:59.988Z,31.98
2022-11-22T21:21:29.698Z,39.17
2022-11-22T21:24:00.027Z,26.05
2022-11-22T21:26:28.998Z,18.45
2022-11-22T21:28:57.675Z,15.85
2022-11-22T21:31:26.184Z,16.45
2022-11-22T21:33:54.841Z,15.48
2022-11-22T21:36:23.204Z,15.82
2022-11-22T21:38:51.457Z,15.77
2022-11-22T21:41:39.480Z,14.77
2022-11-22T21:44:09.336Z,16.27
2022-11-22T21:46:37.924Z,16.83
2022-11-22T21:49:06.595Z,15.98
2022-11-22T21:51:34.837Z,14.07
2022-11-22T21:54:04.106Z,14.68
2022-11-22T21:56:32.303Z,14.88
2022-11-22T21:59:00.671Z,14.52
2022-11-22T22:01:29.370Z,16.45
2022-11-22T22:03:57.835Z,15.98
2022-11-22T22:06:26.144Z,15.02
2022-11-22T22:08:54.708Z,16.00
2022-11-22T22:11:23.099Z,15.30
2022-11-22T22:13:53.670Z,16.73
2022-11-22T22:16:22.364Z,16.75
2022-11-22T22:18:51.157Z,16.02
2022-11-22T22:21:20.480Z,15.98
2022-11-22T22:23:48.858Z,15.85
2022-11-22T22:26:17.960Z,15.45
2022-11-22T22:28:47.060Z,15.50
2022-11-22T22:31:20.870Z,16.27
2022-11-22T22:33:50.443Z,17.15
2022-11-22T22:36:18.722Z,16.50
2022-11-22T22:38:46.859Z,17.15
2022-11-22T22:41:15.347Z,19.83
2022-11-22T22:43:45.587Z,18.23
2022-11-22T22:46:19.674Z,17.63
2022-11-22T22:48:49.130Z,19.92
2022-11-22T22:51:20.191Z,21.50
2022-11-22T22:53:48.972Z,22.23
2022-11-22T22:56:19.154Z,22.42
2022-11-22T22:58:47.376Z,25.05
2022-11-22T23:01:20.703Z,24.17
2022-11-22T23:03:53.415Z,27.98
2022-11-22T23:06:22.778Z,29.35
2022-11-22T23:08:52.684Z,28.73
2022-11-22T23:11:26.735Z,27.63
2022-11-22T23:13:54.975Z,27.30
2022-11-22T23:16:23.153Z,30.23
2022-11-22T23:18:51.468Z,29.45
2022-11-22T23:21:19.859Z,26.60
2022-11-22T23:23:48.084Z,27.20
2022-11-22T23:26:16.423Z,22.98
2022-11-22T23:28:44.560Z,21.92
2022-11-22T23:31:15.802Z,17.83
2022-11-22T23:33:44.672Z,18.17
2022-11-22T23:36:15.538Z,18.38
2022-11-22T23:38:44.607Z,17.02
2022-11-22T23:41:18.323Z,15.77
2022-11-22T23:43:47.495Z,17.02
2022-11-22T23:46:16.749Z,16.63
2022-11-22T23:48:45.684Z,17.23
2022-11-22T23:51:15.035Z,19.77
2022-11-22T23:53:43.437Z,23.40
2022-11-22T23:56:21.496Z,21.88
2022-11-22T23:58:50.819Z,20.10
